Aeroporto :
LOGIN :

Iscrizione | Disclaimer

   EN    FR    IT 

 










Sommario :    VFR   VFR Marginale   IFR   IFR Intensivo   IFR Molto Intensivo
Visibilità : 
Base nubi : 
>= 8 km
>= 3000ft
5 / 8 km
1000 / 3000 ft
1500m / 5 km
500 / 1000 ft
800 / 1500m
200 / 500 ft
< 800m
< 200 ft
Simboli :   Temporali  Nebbia  Neve Forte  Precipitazioni Forti  Vento > 20 kt
SIGMETs :   Varie  Temporali  Ghiacco  Turbolenza  Onda orograficha  Ceneri Vulcaniche






- Altitudine del aeroporto : 782 ft
- Codice IATA : BGY


LIME - Orio al Serio International - Bergamo

ULTIMO METAR :
  • 250220Z 35003KT 9999 FEW090 18/17 Q1013 NOSIG

METARs OBSOLETI :
  • 250150Z 31003KT 250V360 9999 FEW090 18/17 Q1013 NOSIG
  • 250120Z 17004KT 140V200 9999 SCT080 18/16 Q1013 NOSIG
  • 250050Z 16007KT 9999 SCT070 19/16 Q1013 NOSIG
  • 250020Z 36006KT 9999 SCT070 20/16 Q1013 NOSIG
  • 242350Z 36006KT 9999 SCT070 20/16 Q1013 NOSIG
  • 242320Z 03004KT 350V050 9999 SCT070 19/16 Q1014 NOSIG
  • 242250Z VRB02KT 9999 SCT070 19/17 Q1014 NOSIG
  • 242150Z 36004KT 9999 SCT075 19/17 Q1014 NOSIG
  • 242120Z 34003KT 9999 SCT090 19/17 Q1014 NOSIG

TAF TAF LIME
Valido dal 25 a 00 ore il 26 a 00 ore UTC


242300Z 2500/2524 VRB05KT 9999 SCT080
TEMPO 2506/2511 SHRA
TEMPO 2511/2518 TSRA BKN014



MetMap, La meteo Aeronautica in un colpo d'occhio ! - Copyright ORBIFLY Dicembre 2007 - Disclaimer

ORBIFLY MET'MAP TEAM :

Programmazione e sviluppo : Alexandra Zaïnal
Concezione : Baudouin d'Aumeries
Supporto tecnico e logistico : Manuel Goepfert
Aiuto : Marc-Olivier Méhu
Aiuto per la traduzione : Arnaldo La Scala




FONTI E CREDITI :

   NOAA